sensor_id;sensor_type;location;lat;lon;timestamp;pressure;altitude;pressure_sealevel;temperature;humidity
75447;BME280;64024;55.820;37.574;2023-07-16T00:00:13;98582.13;;;22.91;51.42
75447;BME280;64024;55.820;37.574;2023-07-16T00:02:42;98581.31;;;22.90;51.16
75447;BME280;64024;55.820;37.574;2023-07-16T00:05:08;98589.44;;;22.90;51.35
75447;BME280;64024;55.820;37.574;2023-07-16T00:07:35;98592.16;;;22.90;51.30
75447;BME280;64024;55.820;37.574;2023-07-16T00:10:02;98578.63;;;22.90;51.12
75447;BME280;64024;55.820;37.574;2023-07-16T00:12:28;98583.72;;;22.92;51.15
75447;BME280;64024;55.820;37.574;2023-07-16T00:14:55;98577.50;;;22.91;51.39
75447;BME280;64024;55.820;37.574;2023-07-16T00:17:22;98583.72;;;22.92;51.37
75447;BME280;64024;55.820;37.574;2023-07-16T00:19:49;98588.81;;;22.93;51.26
75447;BME280;64024;55.820;37.574;2023-07-16T00:22:17;98588.03;;;22.93;51.34
75447;BME280;64024;55.820;37.574;2023-07-16T00:24:44;98587.22;;;22.92;51.05
75447;BME280;64024;55.820;37.574;2023-07-16T00:27:11;98579.91;;;22.93;51.00
75447;BME280;64024;55.820;37.574;2023-07-16T00:29:37;98588.81;;;22.93;51.22
75447;BME280;64024;55.820;37.574;2023-07-16T00:32:03;98590.72;;;22.93;51.24
75447;BME280;64024;55.820;37.574;2023-07-16T00:34:30;98584.22;;;22.94;51.06
75447;BME280;64024;55.820;37.574;2023-07-16T00:36:57;98592.34;;;22.94;51.12
75447;BME280;64024;55.820;37.574;2023-07-16T00:39:28;98593.16;;;22.94;51.24
75447;BME280;64024;55.820;37.574;2023-07-16T00:41:56;98590.44;;;22.94;51.29
75447;BME280;64024;55.820;37.574;2023-07-16T00:44:23;98601.28;;;22.94;51.09
75447;BME280;64024;55.820;37.574;2023-07-16T00:46:50;98603.19;;;22.94;51.26
75447;BME280;64024;55.820;37.574;2023-07-16T00:49:16;98599.38;;;22.95;51.10
75447;BME280;64024;55.820;37.574;2023-07-16T00:51:44;98593.16;;;22.94;51.26
75447;BME280;64024;55.820;37.574;2023-07-16T00:54:11;98595.88;;;22.94;51.03
75447;BME280;64024;55.820;37.574;2023-07-16T00:56:37;98611.00;;;22.95;50.93
75447;BME280;64024;55.820;37.574;2023-07-16T00:59:05;98597.47;;;22.95;50.89
75447;BME280;64024;55.820;37.574;2023-07-16T01:01:32;98592.03;;;22.95;51.27
75447;BME280;64024;55.820;37.574;2023-07-16T01:03:59;98594.75;;;22.95;51.08
75447;BME280;64024;55.820;37.574;2023-07-16T01:06:35;98598.25;;;22.96;50.95
75447;BME280;64024;55.820;37.574;2023-07-16T01:09:18;98599.56;;;22.98;51.14
75447;BME280;64024;55.820;37.574;2023-07-16T01:11:46;98609.59;;;22.98;51.23
75447;BME280;64024;55.820;37.574;2023-07-16T01:14:17;98606.91;;;22.98;51.29
75447;BME280;64024;55.820;37.574;2023-07-16T01:16:43;98605.00;;;22.98;50.87
75447;BME280;64024;55.820;37.574;2023-07-16T01:19:10;98602.28;;;22.98;50.99
75447;BME280;64024;55.820;37.574;2023-07-16T01:27:17;98616.31;;;23.00;51.21
75447;BME280;64024;55.820;37.574;2023-07-16T01:29:53;98616.31;;;23.00;51.05
75447;BME280;64024;55.820;37.574;2023-07-16T01:32:22;98622.84;;;22.99;51.10
75447;BME280;64024;55.820;37.574;2023-07-16T01:34:49;98618.22;;;23.00;50.75
75447;BME280;64024;55.820;37.574;2023-07-16T01:37:19;98621.72;;;23.00;50.95
75447;BME280;64024;55.820;37.574;2023-07-16T01:39:47;98624.44;;;23.00;51.14
75447;BME280;64024;55.820;37.574;2023-07-16T01:42:14;98624.44;;;23.00;50.80
75447;BME280;64024;55.820;37.574;2023-07-16T01:44:40;98627.16;;;23.00;50.91
75447;BME280;64024;55.820;37.574;2023-07-16T01:50:02;98619.53;;;23.02;50.72
75447;BME280;64024;55.820;37.574;2023-07-16T01:52:29;98629.56;;;23.02;50.80
75447;BME280;64024;55.820;37.574;2023-07-16T01:54:55;98628.03;;;23.10;50.93
75447;BME280;64024;55.820;37.574;2023-07-16T01:57:22;98632.44;;;23.05;50.79
75447;BME280;64024;55.820;37.574;2023-07-16T01:59:49;98631.97;;;23.03;50.81
75447;BME280;64024;55.820;37.574;2023-07-16T02:02:16;98633.88;;;23.03;50.55
75447;BME280;64024;55.820;37.574;2023-07-16T02:04:44;98623.31;;;23.01;50.94
75447;BME280;64024;55.820;37.574;2023-07-16T02:07:09;98627.66;;;23.02;50.94
75447;BME280;64024;55.820;37.574;2023-07-16T02:09:36;98626.56;;;23.03;50.80
75447;BME280;64024;55.820;37.574;2023-07-16T02:12:03;98633.09;;;23.02;50.58
75447;BME280;64024;55.820;37.574;2023-07-16T02:18:03;98640.59;;;23.05;50.53
75447;BME280;64024;55.820;37.574;2023-07-16T02:20:31;98636.28;;;23.04;50.39
75447;BME280;64024;55.820;37.574;2023-07-16T02:22:58;98637.88;;;23.05;50.53
75447;BME280;64024;55.820;37.574;2023-07-16T02:25:32;98637.88;;;23.05;50.71
75447;BME280;64024;55.820;37.574;2023-07-16T02:28:00;98643.28;;;23.05;50.32
75447;BME280;64024;55.820;37.574;2023-07-16T02:30:29;98645.41;;;23.08;50.77
75447;BME280;64024;55.820;37.574;2023-07-16T02:32:55;98651.13;;;23.07;50.84
75447;BME280;64024;55.820;37.574;2023-07-16T02:35:24;98641.59;;;23.10;50.81
75447;BME280;64024;55.820;37.574;2023-07-16T02:37:53;98640.78;;;23.09;50.63
75447;BME280;64024;55.820;37.574;2023-07-16T02:40:22;98652.13;;;23.11;50.56
75447;BME280;64024;55.820;37.574;2023-07-16T02:42:51;98650.53;;;23.10;50.70
75447;BME280;64024;55.820;37.574;2023-07-16T02:45:17;98645.91;;;23.11;50.35
75447;BME280;64024;55.820;37.574;2023-07-16T02:47:43;98644.00;;;23.11;50.04
75447;BME280;64024;55.820;37.574;2023-07-16T02:50:12;98642.09;;;23.12;50.54
75447;BME280;64024;55.820;37.574;2023-07-16T02:52:40;98645.59;;;23.12;50.24
75447;BME280;64024;55.820;37.574;2023-07-16T02:55:08;98645.59;;;23.12;50.16
75447;BME280;64024;55.820;37.574;2023-07-16T02:57:36;98640.69;;;23.14;50.50
75447;BME280;64024;55.820;37.574;2023-07-16T03:00:05;98648.81;;;23.14;50.28
75447;BME280;64024;55.820;37.574;2023-07-16T03:05:54;98668.78;;;23.18;50.60
75447;BME280;64024;55.820;37.574;2023-07-16T03:08:23;98662.53;;;23.18;50.37
75447;BME280;64024;55.820;37.574;2023-07-16T03:10:56;98669.59;;;23.19;50.55
75447;BME280;64024;55.820;37.574;2023-07-16T03:13:22;98670.38;;;23.19;50.54
75447;BME280;64024;55.820;37.574;2023-07-16T03:15:49;98660.34;;;23.20;50.39
75447;BME280;64024;55.820;37.574;2023-07-16T03:18:18;98676.28;;;23.21;50.81
75447;BME280;64024;55.820;37.574;2023-07-16T03:20:45;98669.75;;;23.22;50.74
75447;BME280;64024;55.820;37.574;2023-07-16T03:23:12;98672.19;;;23.24;50.85
75447;BME280;64024;55.820;37.574;2023-07-16T03:25:38;98657.91;;;23.32;50.83
75447;BME280;64024;55.820;37.574;2023-07-16T03:28:04;98664.44;;;23.31;50.83
75447;BME280;64024;55.820;37.574;2023-07-16T03:30:31;98667.44;;;23.29;50.63
75447;BME280;64024;55.820;37.574;2023-07-16T03:32:59;98669.34;;;23.29;50.48
75447;BME280;64024;55.820;37.574;2023-07-16T03:35:25;98673.66;;;23.30;50.65
75447;BME280;64024;55.820;37.574;2023-07-16T03:37:52;98671.75;;;23.30;50.55
75447;BME280;64024;55.820;37.574;2023-07-16T03:40:24;98668.75;;;23.32;51.06
75447;BME280;64024;55.820;37.574;2023-07-16T03:42:51;98673.84;;;23.33;50.92
75447;BME280;64024;55.820;37.574;2023-07-16T03:45:17;98682.78;;;23.34;50.82
75447;BME280;64024;55.820;37.574;2023-07-16T03:47:44;98681.38;;;23.37;50.68
75447;BME280;64024;55.820;37.574;2023-07-16T03:50:14;98682.19;;;23.37;50.99
75447;BME280;64024;55.820;37.574;2023-07-16T03:52:40;98691.91;;;23.38;50.95
75447;BME280;64024;55.820;37.574;2023-07-16T03:55:07;98685.41;;;23.39;50.44
75447;BME280;64024;55.820;37.574;2023-07-16T03:57:33;98675.03;;;23.41;50.59
75447;BME280;64024;55.820;37.574;2023-07-16T04:00:02;98685.88;;;23.41;50.61
75447;BME280;64024;55.820;37.574;2023-07-16T04:02:29;98683.69;;;23.43;50.56
75447;BME280;64024;55.820;37.574;2023-07-16T04:04:57;98694.22;;;23.45;50.95
75447;BME280;64024;55.820;37.574;2023-07-16T04:07:23;98692.31;;;23.45;50.61
75447;BME280;64024;55.820;37.574;2023-07-16T04:09:49;98699.31;;;23.46;50.78
75447;BME280;64024;55.820;37.574;2023-07-16T04:12:16;98693.63;;;23.48;50.99
75447;BME280;64024;55.820;37.574;2023-07-16T04:14:45;98693.63;;;23.48;50.85
75447;BME280;64024;55.820;37.574;2023-07-16T04:17:13;98697.94;;;23.49;50.58
75447;BME280;64024;55.820;37.574;2023-07-16T04:19:40;98700.31;;;23.50;50.66
75447;BME280;64024;55.820;37.574;2023-07-16T04:22:07;98705.47;;;23.52;50.95
75447;BME280;64024;55.820;37.574;2023-07-16T04:24:33;98711.69;;;23.52;50.63
75447;BME280;64024;55.820;37.574;2023-07-16T04:26:59;98706.25;;;23.52;50.71
75447;BME280;64024;55.820;37.574;2023-07-16T04:29:27;98706.75;;;23.54;50.78
75447;BME280;64024;55.820;37.574;2023-07-16T04:31:54;98707.53;;;23.55;50.77
75447;BME280;64024;55.820;37.574;2023-07-16T04:34:21;98713.75;;;23.55;50.78
75447;BME280;64024;55.820;37.574;2023-07-16T04:36:48;98709.97;;;23.56;50.40
75447;BME280;64024;55.820;37.574;2023-07-16T04:39:16;98711.56;;;23.57;50.85
75447;BME280;64024;55.820;37.574;2023-07-16T04:41:43;98706.94;;;23.58;50.70
75447;BME280;64024;55.820;37.574;2023-07-16T04:44:10;98700.72;;;23.57;50.41
75447;BME280;64024;55.820;37.574;2023-07-16T04:46:36;98703.91;;;23.60;50.25
75447;BME280;64024;55.820;37.574;2023-07-16T04:49:06;98702.81;;;23.61;50.79
75447;BME280;64024;55.820;37.574;2023-07-16T04:51:43;98700.59;;;23.63;50.58
75447;BME280;64024;55.820;37.574;2023-07-16T04:54:11;98697.88;;;23.63;50.74
75447;BME280;64024;55.820;37.574;2023-07-16T04:56:48;98702.19;;;23.64;50.75
75447;BME280;64024;55.820;37.574;2023-07-16T04:59:17;98699.22;;;23.65;50.51
75447;BME280;64024;55.820;37.574;2023-07-16T05:01:43;98702.31;;;23.72;50.27
75447;BME280;64024;55.820;37.574;2023-07-16T05:04:09;98699.88;;;23.71;50.19
75447;BME280;64024;55.820;37.574;2023-07-16T05:06:36;98700.19;;;23.69;50.39
75447;BME280;64024;55.820;37.574;2023-07-16T05:09:03;98704.81;;;23.69;50.44
75447;BME280;64024;55.820;37.574;2023-07-16T05:11:32;98708.03;;;23.71;50.63
75447;BME280;64024;55.820;37.574;2023-07-16T05:14:01;98709.63;;;23.72;50.67
75447;BME280;64024;55.820;37.574;2023-07-16T05:16:29;98712.84;;;23.74;50.15
75447;BME280;64024;55.820;37.574;2023-07-16T05:18:58;98712.84;;;23.74;50.42
75447;BME280;64024;55.820;37.574;2023-07-16T05:21:24;98715.22;;;23.75;50.25
75447;BME280;64024;55.820;37.574;2023-07-16T05:24:05;98716.22;;;23.79;50.52
75447;BME280;64024;55.820;37.574;2023-07-16T05:26:34;98715.94;;;23.81;50.46
75447;BME280;64024;55.820;37.574;2023-07-16T05:29:02;98712.09;;;23.82;50.65
75447;BME280;64024;55.820;37.574;2023-07-16T05:31:31;98711.78;;;23.84;50.50
75447;BME280;64024;55.820;37.574;2023-07-16T05:33:59;98715.81;;;23.86;50.47
75447;BME280;64024;55.820;37.574;2023-07-16T05:36:26;98710.84;;;23.88;50.50
75447;BME280;64024;55.820;37.574;2023-07-16T05:38:53;98716.78;;;23.90;50.44
75447;BME280;64024;55.820;37.574;2023-07-16T05:41:20;98716.19;;;23.93;50.50
75447;BME280;64024;55.820;37.574;2023-07-16T05:43:46;98722.09;;;23.95;50.28
75447;BME280;64024;55.820;37.574;2023-07-16T05:46:12;98726.13;;;23.98;50.45
75447;BME280;64024;55.820;37.574;2023-07-16T05:48:39;98727.38;;;24.00;50.25
75447;BME280;64024;55.820;37.574;2023-07-16T05:51:05;98727.09;;;24.02;50.27
75447;BME280;64024;55.820;37.574;2023-07-16T05:53:31;98731.09;;;24.04;50.15
75447;BME280;64024;55.820;37.574;2023-07-16T05:55:58;98729.69;;;24.07;50.40
75447;BME280;64024;55.820;37.574;2023-07-16T05:58:25;98728.88;;;24.06;50.39
75447;BME280;64024;55.820;37.574;2023-07-16T06:00:51;98722.94;;;24.04;50.25
75447;BME280;64024;55.820;37.574;2023-07-16T06:03:17;98725.19;;;24.02;50.22
75447;BME280;64024;55.820;37.574;2023-07-16T06:05:44;98724.72;;;24.09;50.47
75447;BME280;64024;55.820;37.574;2023-07-16T06:08:09;98727.91;;;24.02;50.29
75447;BME280;64024;55.820;37.574;2023-07-16T06:10:37;98729.91;;;23.97;50.66
75447;BME280;64024;55.820;37.574;2023-07-16T06:13:05;98727.03;;;23.93;50.60
75447;BME280;64024;55.820;37.574;2023-07-16T06:15:31;98730.38;;;23.90;50.84
75447;BME280;64024;55.820;37.574;2023-07-16T06:17:57;98724.75;;;23.87;50.64
75447;BME280;64024;55.820;37.574;2023-07-16T06:20:24;98730.78;;;23.84;50.74
75447;BME280;64024;55.820;37.574;2023-07-16T06:22:51;98726.59;;;23.77;51.03
75447;BME280;64024;55.820;37.574;2023-07-16T06:25:17;98740.28;;;23.72;51.15
75447;BME280;64024;55.820;37.574;2023-07-16T06:27:43;98734.16;;;23.67;51.16
75447;BME280;64024;55.820;37.574;2023-07-16T06:30:10;98736.44;;;23.60;51.35
75447;BME280;64024;55.820;37.574;2023-07-16T06:32:37;98733.88;;;23.54;51.40
75447;BME280;64024;55.820;37.574;2023-07-16T06:35:03;98737.50;;;23.50;51.68
75447;BME280;64024;55.820;37.574;2023-07-16T06:37:29;98742.00;;;23.54;51.34
75447;BME280;64024;55.820;37.574;2023-07-16T06:39:56;98745.44;;;23.46;51.50
75447;BME280;64024;55.820;37.574;2023-07-16T06:42:25;98740.44;;;23.40;51.59
75447;BME280;64024;55.820;37.574;2023-07-16T06:44:51;98740.53;;;23.35;51.71
75447;BME280;64024;55.820;37.574;2023-07-16T06:47:19;98740.66;;;23.29;52.01
75447;BME280;64024;55.820;37.574;2023-07-16T06:49:45;98744.28;;;23.25;52.47
75447;BME280;64024;55.820;37.574;2023-07-16T06:52:21;98739.75;;;23.20;52.53
75447;BME280;64024;55.820;37.574;2023-07-16T06:54:48;98751.00;;;23.14;52.38
75447;BME280;64024;55.820;37.574;2023-07-16T06:57:15;98757.34;;;23.09;52.38
75447;BME280;64024;55.820;37.574;2023-07-16T06:59:41;98754.72;;;23.04;52.61
75447;BME280;64024;55.820;37.574;2023-07-16T07:02:08;98763.78;;;22.99;52.97
75447;BME280;64024;55.820;37.574;2023-07-16T07:04:36;98756.53;;;22.95;52.99
75447;BME280;64024;55.820;37.574;2023-07-16T07:07:05;98758.25;;;22.91;53.17
75447;BME280;64024;55.820;37.574;2023-07-16T07:09:32;98759.63;;;22.88;53.35
75447;BME280;64024;55.820;37.574;2023-07-16T07:11:58;98758.31;;;22.86;53.14
75447;BME280;64024;55.820;37.574;2023-07-16T07:14:25;98757.31;;;22.81;53.20
75447;BME280;64024;55.820;37.574;2023-07-16T07:16:51;98757.91;;;22.78;53.71
75447;BME280;64024;55.820;37.574;2023-07-16T07:19:19;98762.00;;;22.76;53.38
75447;BME280;64024;55.820;37.574;2023-07-16T07:21:46;98759.41;;;22.71;53.47
75447;BME280;64024;55.820;37.574;2023-07-16T07:24:12;98759.19;;;22.67;53.81
75447;BME280;64024;55.820;37.574;2023-07-16T07:26:38;98767.13;;;22.64;53.58
75447;BME280;64024;55.820;37.574;2023-07-16T07:29:05;98770.44;;;22.61;53.48
75447;BME280;64024;55.820;37.574;2023-07-16T07:31:32;98766.41;;;22.58;53.45
75447;BME280;64024;55.820;37.574;2023-07-16T07:33:59;98779.44;;;22.56;53.58
75447;BME280;64024;55.820;37.574;2023-07-16T07:36:26;98768.22;;;22.63;53.53
75447;BME280;64024;55.820;37.574;2023-07-16T07:38:52;98770.22;;;22.57;53.41
75447;BME280;64024;55.820;37.574;2023-07-16T07:41:18;98758.19;;;22.49;53.65
75447;BME280;64024;55.820;37.574;2023-07-16T07:43:45;98762.00;;;22.48;53.56
75447;BME280;64024;55.820;37.574;2023-07-16T07:46:11;98759.06;;;22.45;53.89
75447;BME280;64024;55.820;37.574;2023-07-16T07:48:38;98756.63;;;22.43;53.63
75447;BME280;64024;55.820;37.574;2023-07-16T07:51:04;98754.44;;;22.45;53.46
75447;BME280;64024;55.820;37.574;2023-07-16T07:53:33;98752.06;;;22.44;53.59
75447;BME280;64024;55.820;37.574;2023-07-16T07:56:00;98754.75;;;22.44;53.84
75447;BME280;64024;55.820;37.574;2023-07-16T07:58:26;98764.69;;;22.48;53.95
75447;BME280;64024;55.820;37.574;2023-07-16T08:00:53;98770.59;;;22.50;53.62
75447;BME280;64024;55.820;37.574;2023-07-16T08:03:19;98764.91;;;22.52;53.65
75447;BME280;64024;55.820;37.574;2023-07-16T08:05:48;98757.59;;;22.52;53.84
75447;BME280;64024;55.820;37.574;2023-07-16T08:08:15;98760.28;;;22.52;53.50
75447;BME280;64024;55.820;37.574;2023-07-16T08:10:42;98772.72;;;22.53;53.37
75447;BME280;64024;55.820;37.574;2023-07-16T08:13:11;98762.38;;;22.55;53.29
75447;BME280;64024;55.820;37.574;2023-07-16T08:15:37;98774.22;;;22.59;53.24
75447;BME280;64024;55.820;37.574;2023-07-16T08:18:04;98762.00;;;22.62;53.14
75447;BME280;64024;55.820;37.574;2023-07-16T08:20:30;98767.63;;;22.66;53.48
75447;BME280;64024;55.820;37.574;2023-07-16T08:22:57;98781.66;;;22.68;53.11
75447;BME280;64024;55.820;37.574;2023-07-16T08:25:24;98771.34;;;22.70;53.19
75447;BME280;64024;55.820;37.574;2023-07-16T08:27:50;98768.31;;;22.71;52.92
75447;BME280;64024;55.820;37.574;2023-07-16T08:30:18;98761.53;;;22.74;52.98
75447;BME280;64024;55.820;37.574;2023-07-16T08:32:45;98778.47;;;22.79;53.06
75447;BME280;64024;55.820;37.574;2023-07-16T08:35:12;98779.47;;;22.83;53.10
75447;BME280;64024;55.820;37.574;2023-07-16T08:37:43;98782.09;;;22.89;53.30
75447;BME280;64024;55.820;37.574;2023-07-16T08:40:11;98764.97;;;22.93;53.00
75447;BME280;64024;55.820;37.574;2023-07-16T08:42:46;98764.88;;;22.98;53.08
75447;BME280;64024;55.820;37.574;2023-07-16T08:45:16;98755.84;;;23.03;52.93
75447;BME280;64024;55.820;37.574;2023-07-16T08:47:48;98768.19;;;23.09;53.00
75447;BME280;64024;55.820;37.574;2023-07-16T08:50:14;98762.97;;;23.13;52.98
75447;BME280;64024;55.820;37.574;2023-07-16T08:52:43;98773.69;;;23.18;52.86
75447;BME280;64024;55.820;37.574;2023-07-16T08:55:10;98766.88;;;23.20;52.48
75447;BME280;64024;55.820;37.574;2023-07-16T08:57:38;98747.59;;;23.22;52.59
75447;BME280;64024;55.820;37.574;2023-07-16T09:00:07;98753.31;;;23.20;51.97
75447;BME280;64024;55.820;37.574;2023-07-16T09:02:35;98760.13;;;23.18;51.92
75447;BME280;64024;55.820;37.574;2023-07-16T09:05:04;98755.03;;;23.16;51.93
75447;BME280;64024;55.820;37.574;2023-07-16T09:07:35;98758.06;;;23.15;52.03
75447;BME280;64024;55.820;37.574;2023-07-16T09:10:03;98756.13;;;23.15;52.03
75447;BME280;64024;55.820;37.574;2023-07-16T09:12:33;98751.19;;;23.17;52.51
75447;BME280;64024;55.820;37.574;2023-07-16T09:14:59;98750.91;;;23.19;52.53
75447;BME280;64024;55.820;37.574;2023-07-16T09:17:27;98742.97;;;23.22;52.21
75447;BME280;64024;55.820;37.574;2023-07-16T09:19:56;98732.31;;;23.26;52.61
75447;BME280;64024;55.820;37.574;2023-07-16T09:22:22;98752.59;;;23.28;52.42
75447;BME280;64024;55.820;37.574;2023-07-16T09:24:50;98748.50;;;23.31;52.01
75447;BME280;64024;55.820;37.574;2023-07-16T09:27:17;98749.78;;;23.33;52.25
75447;BME280;64024;55.820;37.574;2023-07-16T09:29:44;98747.28;;;23.37;51.94
75447;BME280;64024;55.820;37.574;2023-07-16T09:32:10;98737.72;;;23.40;52.08
75447;BME280;64024;55.820;37.574;2023-07-16T09:34:40;98742.25;;;23.44;52.06
75447;BME280;64024;55.820;37.574;2023-07-16T09:37:07;98747.06;;;23.47;51.95
75447;BME280;64024;55.820;37.574;2023-07-16T09:39:34;98729.06;;;23.51;51.68
75447;BME280;64024;55.820;37.574;2023-07-16T09:42:04;98744.72;;;23.54;51.46
75447;BME280;64024;55.820;37.574;2023-07-16T09:44:33;98746.50;;;23.59;51.69
75447;BME280;64024;55.820;37.574;2023-07-16T09:47:00;98738.56;;;23.63;51.34
75447;BME280;64024;55.820;37.574;2023-07-16T09:49:30;98747.72;;;23.67;51.10
75447;BME280;64024;55.820;37.574;2023-07-16T09:51:57;98738.97;;;23.70;50.98
75447;BME280;64024;55.820;37.574;2023-07-16T09:54:23;98741.63;;;23.84;50.89
75447;BME280;64024;55.820;37.574;2023-07-16T09:56:56;98744.06;;;23.85;50.83
75447;BME280;64024;55.820;37.574;2023-07-16T09:59:28;98745.34;;;23.88;50.71
75447;BME280;64024;55.820;37.574;2023-07-16T10:01:55;98755.91;;;23.89;50.62
75447;BME280;64024;55.820;37.574;2023-07-16T10:04:22;98750.34;;;23.94;50.28
75447;BME280;64024;55.820;37.574;2023-07-16T10:06:53;98764.13;;;23.98;50.46
75447;BME280;64024;55.820;37.574;2023-07-16T10:09:39;98755.84;;;24.03;49.97
75447;BME280;64024;55.820;37.574;2023-07-16T10:12:16;98740.03;;;24.05;49.61
75447;BME280;64024;55.820;37.574;2023-07-16T10:14:46;98744.56;;;24.10;49.20
75447;BME280;64024;55.820;37.574;2023-07-16T10:17:17;98737.41;;;24.14;49.09
75447;BME280;64024;55.820;37.574;2023-07-16T10:22:15;98763.31;;;24.20;49.18
75447;BME280;64024;55.820;37.574;2023-07-16T10:24:41;98743.69;;;24.23;48.97
75447;BME280;64024;55.820;37.574;2023-07-16T10:27:13;98762.88;;;24.26;48.55
75447;BME280;64024;55.820;37.574;2023-07-16T10:29:39;98744.84;;;24.30;48.55
75447;BME280;64024;55.820;37.574;2023-07-16T10:32:06;98744.53;;;24.32;48.26
75447;BME280;64024;55.820;37.574;2023-07-16T10:34:35;98732.56;;;24.33;48.02
75447;BME280;64024;55.820;37.574;2023-07-16T10:37:02;98748.84;;;24.33;47.61
75447;BME280;64024;55.820;37.574;2023-07-16T10:39:29;98755.06;;;24.34;47.63
75447;BME280;64024;55.820;37.574;2023-07-16T10:41:57;98746.13;;;24.33;47.48
75447;BME280;64024;55.820;37.574;2023-07-16T10:44:23;98735.59;;;24.31;47.59
75447;BME280;64024;55.820;37.574;2023-07-16T10:46:49;98760.03;;;24.31;46.95
75447;BME280;64024;55.820;37.574;2023-07-16T10:49:28;98754.59;;;24.31;46.65
75447;BME280;64024;55.820;37.574;2023-07-16T10:51:54;98733.16;;;24.30;46.85
75447;BME280;64024;55.820;37.574;2023-07-16T10:54:20;98747.06;;;24.28;46.62
75447;BME280;64024;55.820;37.574;2023-07-16T10:56:47;98742.25;;;24.25;46.89
75447;BME280;64024;55.820;37.574;2023-07-16T10:59:14;98759.66;;;24.24;46.67
75447;BME280;64024;55.820;37.574;2023-07-16T11:01:42;98758.06;;;24.23;46.94
75447;BME280;64024;55.820;37.574;2023-07-16T11:04:09;98752.63;;;24.23;46.63
75447;BME280;64024;55.820;37.574;2023-07-16T11:06:36;98745.28;;;24.24;46.41
75447;BME280;64024;55.820;37.574;2023-07-16T11:09:08;98747.69;;;24.25;46.27
75447;BME280;64024;55.820;37.574;2023-07-16T11:11:34;98727.06;;;24.24;46.21
75447;BME280;64024;55.820;37.574;2023-07-16T11:14:04;98741.78;;;24.23;46.14
75447;BME280;64024;55.820;37.574;2023-07-16T11:16:38;98759.97;;;24.23;46.10
75447;BME280;64024;55.820;37.574;2023-07-16T11:19:05;98749.91;;;24.23;46.15
75447;BME280;64024;55.820;37.574;2023-07-16T11:21:37;98730.91;;;24.23;45.50
75447;BME280;64024;55.820;37.574;2023-07-16T11:24:09;98734.91;;;24.26;45.49
75447;BME280;64024;55.820;37.574;2023-07-16T11:26:35;98727.56;;;24.26;45.78
75447;BME280;64024;55.820;37.574;2023-07-16T11:29:13;98726.47;;;24.27;45.74
75447;BME280;64024;55.820;37.574;2023-07-16T11:31:42;98727.25;;;24.28;45.75
75447;BME280;64024;55.820;37.574;2023-07-16T11:34:15;98723.41;;;24.29;45.93
75447;BME280;64024;55.820;37.574;2023-07-16T11:36:42;98732.69;;;24.28;45.82
75447;BME280;64024;55.820;37.574;2023-07-16T11:39:12;98742.25;;;24.25;45.74
75447;BME280;64024;55.820;37.574;2023-07-16T11:41:39;98736.00;;;24.25;45.45
75447;BME280;64024;55.820;37.574;2023-07-16T11:44:10;98741.44;;;24.25;45.84
75447;BME280;64024;55.820;37.574;2023-07-16T11:46:41;98758.25;;;24.27;45.73
75447;BME280;64024;55.820;37.574;2023-07-16T11:49:13;98743.22;;;24.29;45.42
75447;BME280;64024;55.820;37.574;2023-07-16T11:51:39;98747.56;;;24.30;45.15
75447;BME280;64024;55.820;37.574;2023-07-16T11:54:10;98727.44;;;24.31;45.12
75447;BME280;64024;55.820;37.574;2023-07-16T11:56:40;98739.91;;;24.33;45.32
75447;BME280;64024;55.820;37.574;2023-07-16T11:59:10;98734.47;;;24.33;45.39
75447;BME280;64024;55.820;37.574;2023-07-16T12:01:36;98743.91;;;24.35;45.42
75447;BME280;64024;55.820;37.574;2023-07-16T12:04:03;98743.91;;;24.35;45.32
75447;BME280;64024;55.820;37.574;2023-07-16T12:06:30;98761.53;;;24.38;45.27
75447;BME280;64024;55.820;37.574;2023-07-16T12:08:56;98745.72;;;24.40;45.18
75447;BME280;64024;55.820;37.574;2023-07-16T12:11:22;98741.56;;;24.42;45.27
75447;BME280;64024;55.820;37.574;2023-07-16T12:13:49;98746.38;;;24.45;45.33
75447;BME280;64024;55.820;37.574;2023-07-16T12:16:16;98732.19;;;24.48;45.19
75447;BME280;64024;55.820;37.574;2023-07-16T12:18:42;98731.91;;;24.59;45.04
75447;BME280;64024;55.820;37.574;2023-07-16T12:21:09;98721.97;;;24.54;44.50
75447;BME280;64024;55.820;37.574;2023-07-16T12:23:35;98726.75;;;24.48;44.07
75447;BME280;64024;55.820;37.574;2023-07-16T12:26:01;98719.56;;;24.44;43.98
75447;BME280;64024;55.820;37.574;2023-07-16T12:28:29;98736.78;;;24.39;43.65
75447;BME280;64024;55.820;37.574;2023-07-16T12:30:55;98742.00;;;24.36;43.59
75447;BME280;64024;55.820;37.574;2023-07-16T12:33:21;98743.41;;;24.33;43.86
75447;BME280;64024;55.820;37.574;2023-07-16T12:35:46;98746.44;;;24.31;43.67
75447;BME280;64024;55.820;37.574;2023-07-16T12:38:13;98753.00;;;24.30;43.93
75447;BME280;64024;55.820;37.574;2023-07-16T12:40:40;98751.38;;;24.29;43.93
75447;BME280;64024;55.820;37.574;2023-07-16T12:43:07;98747.88;;;24.29;44.24
75447;BME280;64024;55.820;37.574;2023-07-16T12:45:33;98742.81;;;24.36;44.46
75447;BME280;64024;55.820;37.574;2023-07-16T12:48:00;98759.72;;;24.33;44.56
75447;BME280;64024;55.820;37.574;2023-07-16T12:50:28;98743.75;;;24.31;44.49
75447;BME280;64024;55.820;37.574;2023-07-16T12:52:55;98726.72;;;24.40;44.77
75447;BME280;64024;55.820;37.574;2023-07-16T12:55:22;98738.97;;;24.37;44.77
75447;BME280;64024;55.820;37.574;2023-07-16T12:57:49;98748.31;;;24.45;44.65
75447;BME280;64024;55.820;37.574;2023-07-16T13:00:15;98753.56;;;24.41;44.54
75447;BME280;64024;55.820;37.574;2023-07-16T13:02:42;98740.59;;;24.38;44.59
75447;BME280;64024;55.820;37.574;2023-07-16T13:05:09;98728.94;;;24.38;44.28
75447;BME280;64024;55.820;37.574;2023-07-16T13:07:35;98743.81;;;24.40;44.13
75447;BME280;64024;55.820;37.574;2023-07-16T13:10:01;98739.97;;;24.41;44.15